Data Viewer
| City | State | Eastern Time | Source | Temp | DewPt | RH | BP | 5 Min Precip | Wind Speed | Wind Dir | 5 Min Wind Max | 5 Min Wind Max Dir |
|---|---|---|---|---|---|---|---|---|---|---|---|---|
| Danbury | CT | 2026-05-02 16:40 | ASOS | 57 | 35 | 44 | 29.82 | 8 | NW | |||
| Danbury | CT | 2026-05-03 08:15 | ASOS | 45 | 28 | 53 | 29.87 | 10 | NW | |||
| Danbury | CT | 2026-05-03 08:45 | ASOS | 45 | 28 | 53 | 29.87 | 14 | NW | |||
| Danbury | CT | 2026-05-03 08:40 | ASOS | 45 | 28 | 53 | 29.87 | 16 | NNW | |||
| Danbury | CT | 2026-05-03 08:35 | ASOS | 45 | 28 | 53 | 29.87 | 10 | NW | |||
| Danbury | CT | 2026-05-03 08:30 | ASOS | 45 | 28 | 53 | 29.88 | 17 | NW | |||
| Danbury | CT | 2026-05-03 08:25 | ASOS | 45 | 28 | 53 | 29.87 | 10 | NW | |||
| Danbury | CT | 2026-05-03 08:20 | ASOS | 45 | 30 | 57 | 29.87 | |||||
| Danbury | CT | 2026-05-03 08:10 | ASOS | 45 | 30 | 57 | 29.87 | 12 | NW | |||
| Danbury | CT | 2026-05-03 08:53 | ASOS | 45 | 28 | 51 | 29.88 | 13 | NNW | |||
| Danbury | CT | 2026-05-03 08:05 | ASOS | 45 | 30 | 57 | 29.87 | 9 | NW | |||
| Danbury | CT | 2026-05-03 08:00 | ASOS | 43 | 30 | 61 | 29.87 | 7 | NW | |||
| Danbury | CT | 2026-05-03 07:55 | ASOS | 43 | 30 | 61 | 29.87 | 8 | NW | |||
| Danbury | CT | 2026-05-03 07:53 | ASOS | 42 | 30 | 62 | 29.87 | 7 | NW | |||
| Danbury | CT | 2026-05-03 07:50 | ASOS | 43 | 30 | 61 | 29.87 | 8 | NW | |||
| Danbury | CT | 2026-05-03 07:45 | ASOS | 43 | 30 | 61 | 29.87 | 8 | NNW | |||
| Danbury | CT | 2026-05-03 08:50 | ASOS | 45 | 28 | 53 | 29.88 | 13 | NNW | |||
| Danbury | CT | 2026-05-03 08:55 | ASOS | 46 | 28 | 49 | 29.87 | 9 | NW | |||
| Danbury | CT | 2026-05-03 07:35 | ASOS | 41 | 28 | 61 | 29.87 | 9 | NNW | |||
| Danbury | CT | 2026-05-03 09:50 | ASOS | 46 | 28 | 49 | 29.86 | 16 | NW | |||
| Danbury | CT | 2026-05-03 10:15 | ASOS | 50 | 30 | 46 | 29.86 | 17 | NNW | |||
| Danbury | CT | 2026-05-03 10:10 | ASOS | 48 | 28 | 46 | 29.86 | 9 | NW | |||
| Danbury | CT | 2026-05-03 10:05 | ASOS | 46 | 28 | 49 | 29.86 | 14 | NW | |||
| Danbury | CT | 2026-05-03 10:00 | ASOS | 46 | 26 | 46 | 29.86 | 20 | NNW | |||
| Danbury | CT | 2026-05-03 09:55 | ASOS | 46 | 28 | 49 | 29.86 | 13 | NW | |||
| Danbury | CT | 2026-05-03 09:53 | ASOS | 47 | 28 | 48 | 29.86 | 15 | NW | |||
| Danbury | CT | 2026-05-03 09:45 | ASOS | 46 | 28 | 49 | 29.86 | 10 | NNW | |||
| Danbury | CT | 2026-05-03 09:05 | ASOS | 46 | 28 | 49 | 29.87 | 14 | NW | |||
| Danbury | CT | 2026-05-03 09:40 | ASOS | 46 | 28 | 49 | 29.87 | 13 | NW | |||
| Danbury | CT | 2026-05-03 09:35 | ASOS | 46 | 28 | 49 | 29.87 | 15 | NNW | |||
| Danbury | CT | 2026-05-03 09:30 | ASOS | 46 | 28 | 49 | 29.86 | 8 | NW | |||
| Danbury | CT | 2026-05-03 09:25 | ASOS | 46 | 30 | 53 | 29.87 | 9 | NW | |||
| Danbury | CT | 2026-05-03 09:20 | ASOS | 46 | 28 | 49 | 29.87 | 15 | NNW | |||
| Danbury | CT | 2026-05-03 09:15 | ASOS | 46 | 28 | 49 | 29.87 | 15 | NNW | |||
| Danbury | CT | 2026-05-03 09:10 | ASOS | 46 | 28 | 49 | 29.86 | 10 | NNW | |||
| Danbury | CT | 2026-05-03 07:40 | ASOS | 43 | 28 | 56 | 29.87 | 9 | NNW | |||
| Danbury | CT | 2026-05-03 07:30 | ASOS | 41 | 28 | 61 | 29.87 | 10 | NW | |||
| Danbury | CT | 2026-05-03 10:25 | ASOS | 46 | 26 | 46 | 29.86 | 13 | NW | |||
| Danbury | CT | 2026-05-03 05:20 | ASOS | 41 | 28 | 61 | 29.85 | 7 | NNW | |||
| Danbury | CT | 2026-05-03 05:50 | ASOS | 39 | 28 | 65 | 29.85 | 13 | NNW | |||
| Danbury | CT | 2026-05-03 05:45 | ASOS | 41 | 28 | 61 | 29.85 | 14 | N | |||
| Danbury | CT | 2026-05-03 05:40 | ASOS | 41 | 28 | 61 | 29.85 | 8 | NNW | |||
| Danbury | CT | 2026-05-03 05:35 | ASOS | 41 | 28 | 61 | 29.85 | 10 | NNW | |||
| Danbury | CT | 2026-05-03 05:30 | ASOS | 41 | 28 | 61 | 29.85 | 14 | NNW | |||
| Danbury | CT | 2026-05-03 05:25 | ASOS | 41 | 28 | 61 | 29.85 | 9 | NNW | |||
| Danbury | CT | 2026-05-03 05:15 | ASOS | 41 | 28 | 61 | 29.85 | 8 | N | |||
| Danbury | CT | 2026-05-03 05:55 | ASOS | 39 | 28 | 65 | 29.85 | 7 | NNW | |||
| Danbury | CT | 2026-05-03 05:10 | ASOS | 41 | 28 | 61 | 29.85 | 9 | NNW | |||
| Danbury | CT | 2026-05-03 05:05 | ASOS | 41 | 28 | 61 | 29.85 | 7 | NNW | |||
| Danbury | CT | 2026-05-03 05:00 | ASOS | 41 | 28 | 61 | 29.85 | 6 | N | |||
| Danbury | CT | 2026-05-03 04:55 | ASOS | 41 | 28 | 61 | 29.86 | 8 | NNW | |||
| Danbury | CT | 2026-05-03 04:53 | ASOS | 41 | 28 | 60 | 29.86 | 7 | NNW | |||
| Danbury | CT | 2026-05-03 04:50 | ASOS | 41 | 28 | 61 | 29.86 | 7 | NW | |||
| Danbury | CT | 2026-05-03 04:45 | ASOS | 41 | 28 | 61 | 29.86 | 7 | NNW | |||
| Danbury | CT | 2026-05-03 05:53 | ASOS | 40 | 29 | 65 | 29.85 | 8 | NW | |||
| Danbury | CT | 2026-05-03 06:00 | ASOS | 39 | 28 | 65 | 29.85 | 8 | NW | |||
| Danbury | CT | 2026-05-03 07:25 | ASOS | 41 | 28 | 61 | 29.87 | 13 | NW | |||
| Danbury | CT | 2026-05-03 06:53 | ASOS | 40 | 29 | 65 | 29.86 | 7 | NW | |||
| Danbury | CT | 2026-05-03 07:20 | ASOS | 41 | 28 | 61 | 29.87 | 10 | NW | |||
| Danbury | CT | 2026-05-03 07:15 | ASOS | 41 | 28 | 61 | 29.87 | 12 | NW | |||
| Danbury | CT | 2026-05-03 07:10 | ASOS | 41 | 28 | 61 | 29.87 | 9 | WNW | |||
| Danbury | CT | 2026-05-03 07:05 | ASOS | 41 | 28 | 61 | 29.87 | 8 | NW | |||
| Danbury | CT | 2026-05-03 07:00 | ASOS | 39 | 28 | 65 | 29.87 | 9 | NW | |||
| Danbury | CT | 2026-05-03 06:55 | ASOS | 39 | 28 | 65 | 29.86 | 10 | NW | |||
| Danbury | CT | 2026-05-03 06:50 | ASOS | 39 | 28 | 65 | 29.86 | 8 | NW | |||
| Danbury | CT | 2026-05-03 06:05 | ASOS | 39 | 28 | 65 | 29.85 | 9 | NW | |||
| Danbury | CT | 2026-05-03 06:45 | ASOS | 39 | 28 | 65 | 29.86 | 9 | NW | |||
| Danbury | CT | 2026-05-03 06:40 | ASOS | 39 | 28 | 65 | 29.86 | 7 | NW | |||
| Danbury | CT | 2026-05-03 06:35 | ASOS | 39 | 28 | 65 | 29.86 | 8 | NW | |||
| Danbury | CT | 2026-05-03 06:30 | ASOS | 39 | 28 | 65 | 29.86 | 7 | NW | |||
| Danbury | CT | 2026-05-03 06:25 | ASOS | 39 | 28 | 65 | 29.86 | 7 | NW | |||
| Danbury | CT | 2026-05-03 06:20 | ASOS | 39 | 28 | 65 | 29.86 | 8 | NNW | |||
| Danbury | CT | 2026-05-03 06:10 | ASOS | 39 | 28 | 65 | 29.85 | 8 | NNW | |||
| Danbury | CT | 2026-05-03 10:20 | ASOS | 48 | 26 | 43 | 29.86 | 16 | NW | |||
| Danbury | CT | 2026-05-03 10:30 | ASOS | 48 | 28 | 46 | 29.86 | 14 | NNW | |||
| Danbury | CT | 2026-05-03 04:35 | ASOS | 41 | 28 | 61 | 29.86 | 12 | N | |||
| Danbury | CT | 2026-05-03 14:10 | ASOS | 52 | 25 | 35 | 29.85 | 16 | NW | |||
| Danbury | CT | 2026-05-03 14:40 | ASOS | 54 | 26 | 35 | 29.84 | 13 | NW | |||
| Danbury | CT | 2026-05-03 14:35 | ASOS | 52 | 25 | 35 | 29.84 | 14 | NNW | |||
| Danbury | CT | 2026-05-03 14:30 | ASOS | 52 | 25 | 35 | 29.85 | 14 | NW | |||
| Danbury | CT | 2026-05-03 14:25 | ASOS | 52 | 25 | 35 | 29.84 | 16 | W | |||
| Danbury | CT | 2026-05-03 14:20 | ASOS | 52 | 25 | 35 | 29.84 | 14 | WNW | |||
| Danbury | CT | 2026-05-03 14:15 | ASOS | 52 | 23 | 32 | 29.85 | 13 | WNW | |||
| Danbury | CT | 2026-05-03 14:05 | ASOS | 52 | 25 | 35 | 29.84 | 13 | WNW | |||
| Danbury | CT | 2026-05-03 14:53 | ASOS | 53 | 25 | 33 | 29.84 | 14 | NNW | |||
| Danbury | CT | 2026-05-03 14:00 | ASOS | 52 | 23 | 32 | 29.84 | 14 | WNW | |||
| Danbury | CT | 2026-05-03 13:55 | ASOS | 52 | 25 | 35 | 29.85 | 14 | WNW | |||
| Danbury | CT | 2026-05-03 13:53 | ASOS | 52 | 24 | 33 | 29.85 | 9 | NNW | |||
| Danbury | CT | 2026-05-03 13:50 | ASOS | 52 | 25 | 35 | 29.84 | 9 | NNW | |||
| Danbury | CT | 2026-05-03 13:45 | ASOS | 52 | 23 | 32 | 29.84 | 14 | W | |||
| Danbury | CT | 2026-05-03 13:40 | ASOS | 54 | 25 | 32 | 29.84 | 16 | WNW | |||
| Danbury | CT | 2026-05-03 14:45 | ASOS | 54 | 25 | 32 | 29.84 | 15 | NW | |||
| Danbury | CT | 2026-05-03 15:00 | ASOS | 52 | 25 | 35 | 29.84 | 14 | W | |||
| Danbury | CT | 2026-05-03 13:30 | ASOS | 52 | 23 | 32 | 29.84 | 14 | NW | |||
| Danbury | CT | 2026-05-03 15:53 | ASOS | 53 | 24 | 32 | 29.83 | 12 | NW | |||
| Danbury | CT | 2026-05-03 16:25 | ASOS | 55 | 23 | 28 | 29.81 | 12 | WNW | |||
| Danbury | CT | 2026-05-03 16:20 | ASOS | 55 | 25 | 30 | 29.81 | 9 | WNW | |||
| Danbury | CT | 2026-05-03 16:15 | ASOS | 54 | 25 | 32 | 29.82 | 9 | NW | |||
| Danbury | CT | 2026-05-03 16:10 | ASOS | 54 | 23 | 30 | 29.82 | 12 | W | |||
| Danbury | CT | 2026-05-03 16:05 | ASOS | 54 | 23 | 30 | 29.83 | 12 | WNW | |||
| Danbury | CT | 2026-05-03 16:00 | ASOS | 55 | 25 | 30 | 29.82 | 17 | WNW | |||
| Danbury | CT | 2026-05-03 15:50 | ASOS | 54 | 23 | 30 | 29.83 | 12 | NW | |||
| Danbury | CT | 2026-05-03 15:05 | ASOS | 54 | 25 | 32 | 29.84 | 12 | WNW | |||
| Danbury | CT | 2026-05-03 15:45 | ASOS | 54 | 23 | 30 | 29.83 | 13 | NW | |||
| Danbury | CT | 2026-05-03 15:40 | ASOS | 54 | 25 | 32 | 29.83 | 10 | W | |||
| Danbury | CT | 2026-05-03 15:30 | ASOS | 52 | 25 | 35 | 29.83 | 10 | NW | |||
| Danbury | CT | 2026-05-03 15:25 | ASOS | 52 | 23 | 32 | 29.84 | 8 | NW | |||
| Danbury | CT | 2026-05-03 15:20 | ASOS | 54 | 25 | 32 | 29.84 | 15 | NW | |||
| Danbury | CT | 2026-05-03 15:15 | ASOS | 52 | 23 | 32 | 29.84 | 14 | NNW | |||
| Danbury | CT | 2026-05-03 15:10 | ASOS | 54 | 25 | 32 | 29.84 | 16 | NW | |||
| Danbury | CT | 2026-05-03 13:35 | ASOS | 52 | 23 | 32 | 29.84 | 10 | NW | |||
| Danbury | CT | 2026-05-03 13:25 | ASOS | 52 | 23 | 32 | 29.85 | 15 | WNW | |||
| Danbury | CT | 2026-05-03 10:35 | ASOS | 46 | 26 | 46 | 29.86 | 16 | NNW | |||
| Danbury | CT | 2026-05-03 11:15 | ASOS | 48 | 28 | 46 | 29.86 | 14 | NNW | |||
| Danbury | CT | 2026-05-03 11:45 | ASOS | 52 | 26 | 37 | 29.86 | 17 | NNW | |||
| Danbury | CT | 2026-05-03 11:40 | ASOS | 48 | 25 | 40 | 29.86 | 12 | WNW | |||
| Danbury | CT | 2026-05-03 11:35 | ASOS | 48 | 25 | 40 | 29.86 | 16 | NNW | |||
| Danbury | CT | 2026-05-03 11:30 | ASOS | 48 | 26 | 43 | 29.86 | 8 | NW | |||
| Danbury | CT | 2026-05-03 11:25 | ASOS | 48 | 26 | 43 | 29.86 | 14 | N | |||
| Danbury | CT | 2026-05-03 11:20 | ASOS | 48 | 26 | 43 | 29.86 | 7 | NW | |||
| Danbury | CT | 2026-05-03 11:10 | ASOS | 48 | 28 | 46 | 29.86 | 12 | NW | |||
| Danbury | CT | 2026-05-03 11:53 | ASOS | 51 | 25 | 36 | 29.86 | 13 | NNW | |||
| Danbury | CT | 2026-05-03 11:05 | ASOS | 48 | 28 | 46 | 29.86 | 14 | NW | |||
| Danbury | CT | 2026-05-03 11:00 | ASOS | 48 | 30 | 50 | 29.86 | 8 | WNW | |||
| Danbury | CT | 2026-05-03 10:55 | ASOS | 48 | 28 | 46 | 29.86 | 9 | WNW | |||
| Danbury | CT | 2026-05-03 10:53 | ASOS | 48 | 29 | 47 | 29.86 | 10 | WNW | |||
| Danbury | CT | 2026-05-03 10:50 | ASOS | 48 | 28 | 46 | 29.86 | 9 | NW | |||
| Danbury | CT | 2026-05-03 10:45 | ASOS | 48 | 28 | 46 | 29.87 | 10 | WNW | |||
| Danbury | CT | 2026-05-03 10:40 | ASOS | 46 | 26 | 46 | 29.86 | 13 | NNW | |||
| Danbury | CT | 2026-05-03 11:50 | ASOS | 50 | 26 | 40 | 29.85 | 10 | NNW | |||
| Danbury | CT | 2026-05-03 11:55 | ASOS | 50 | 25 | 37 | 29.85 | 14 | NNW | |||
| Danbury | CT | 2026-05-03 13:20 | ASOS | 52 | 21 | 30 | 29.84 | 12 | WNW | |||
| Danbury | CT | 2026-05-03 12:45 | ASOS | 52 | 25 | 35 | 29.84 | |||||
| Danbury | CT | 2026-05-03 13:15 | ASOS | 52 | 21 | 30 | 29.84 | 13 | W | |||
| Danbury | CT | 2026-05-03 13:10 | ASOS | 52 | 21 | 30 | 29.84 | 15 | WNW | |||
| Danbury | CT | 2026-05-03 13:05 | ASOS | 52 | 21 | 30 | 29.84 | 10 | WNW | |||
| Danbury | CT | 2026-05-03 13:00 | ASOS | 52 | 21 | 30 | 29.84 | 15 | WNW | |||
| Danbury | CT | 2026-05-03 12:53 | ASOS | 51 | 21 | 30 | 29.84 | 13 | NW | |||
| Danbury | CT | 2026-05-03 12:50 | ASOS | 52 | 21 | 30 | 29.84 | 13 | NW | |||
| Danbury | CT | 2026-05-03 12:40 | ASOS | 50 | 21 | 32 | 29.84 | 9 | WNW | |||
| Danbury | CT | 2026-05-03 12:00 | ASOS | 48 | 25 | 40 | 29.85 | 8 | NNW | |||
| Danbury | CT | 2026-05-03 12:35 | ASOS | 52 | 21 | 30 | 29.85 | 12 | WNW | |||
| Danbury | CT | 2026-05-03 12:30 | ASOS | 52 | 25 | 35 | 29.85 | 12 | W | |||
| Danbury | CT | 2026-05-03 12:25 | ASOS | 52 | 25 | 35 | 29.85 | 14 | WNW | |||
| Danbury | CT | 2026-05-03 12:20 | ASOS | 50 | 25 | 37 | 29.85 | 9 | W | |||
| Danbury | CT | 2026-05-03 12:15 | ASOS | 48 | 23 | 37 | 29.85 | 13 | NW | |||
| Danbury | CT | 2026-05-03 12:10 | ASOS | 48 | 23 | 37 | 29.85 | 12 | WNW | |||
| Danbury | CT | 2026-05-03 12:05 | ASOS | 48 | 25 | 40 | 29.85 | 10 | NNW | |||
| Danbury | CT | 2026-05-03 04:40 | ASOS | 41 | 28 | 61 | 29.86 | 8 | NNW | |||
| Danbury | CT | 2026-05-03 04:30 | ASOS | 41 | 28 | 61 | 29.86 | 7 | NNW | |||
| Danbury | CT | 2026-05-02 16:45 | ASOS | 57 | 34 | 41 | 29.82 | 9 | NW | |||
| Danbury | CT | 2026-05-02 20:20 | ASOS | 52 | 34 | 50 | 29.86 | 12 | N | |||
| Danbury | CT | 2026-05-02 20:50 | ASOS | 52 | 28 | 40 | 29.88 | 8 | N | |||
| Danbury | CT | 2026-05-02 20:45 | ASOS | 52 | 30 | 43 | 29.87 | 9 | N | |||
| Danbury | CT | 2026-05-02 20:40 | ASOS | 52 | 30 | 43 | 29.87 | 9 | N | |||
| Danbury | CT | 2026-05-02 20:35 | ASOS | 52 | 30 | 43 | 29.87 | 8 | N | |||
| Danbury | CT | 2026-05-02 20:30 | ASOS | 52 | 30 | 43 | 29.87 | 8 | N | |||
| Danbury | CT | 2026-05-02 20:25 | ASOS | 52 | 30 | 43 | 29.86 | 8 | N | |||
| Danbury | CT | 2026-05-02 20:15 | ASOS | 50 | 37 | 62 | 29.86 | 5 | N | |||
| Danbury | CT | 2026-05-02 20:55 | ASOS | 52 | 28 | 40 | 29.88 | 8 | NNW | |||
| Danbury | CT | 2026-05-02 20:10 | ASOS | 52 | 35 | 54 | 29.86 | 3 | W | |||
| Danbury | CT | 2026-05-02 20:05 | ASOS | 52 | 34 | 50 | 29.86 | 0 | N | |||
| Danbury | CT | 2026-05-02 20:00 | ASOS | 54 | 34 | 47 | 29.86 | 0 | N | |||
| Danbury | CT | 2026-05-02 19:53 | ASOS | 52 | 34 | 50 | 29.86 | 0 | N | |||
| Danbury | CT | 2026-05-02 19:50 | ASOS | 52 | 34 | 50 | 29.85 | 0 | N | |||
| Danbury | CT | 2026-05-02 19:45 | ASOS | 52 | 34 | 50 | 29.85 | 3 | NNW | |||
| Danbury | CT | 2026-05-02 20:53 | ASOS | 51 | 29 | 42 | 29.88 | 9 | N | |||
| Danbury | CT | 2026-05-02 21:00 | ASOS | 52 | 28 | 40 | 29.88 | 8 | N | |||
| Danbury | CT | 2026-05-02 19:35 | ASOS | 54 | 34 | 47 | 29.85 | 3 | NNW | |||
| Danbury | CT | 2026-05-02 21:50 | ASOS | 50 | 28 | 43 | 29.89 | 5 | N | |||
| Danbury | CT | 2026-05-02 22:15 | ASOS | 50 | 26 | 40 | 29.88 | 8 | N | |||
| Danbury | CT | 2026-05-02 22:10 | ASOS | 50 | 26 | 40 | 29.88 | 7 | NNW | |||
| Danbury | CT | 2026-05-02 22:05 | ASOS | 48 | 28 | 46 | 29.89 | 7 | NNW | |||
| Danbury | CT | 2026-05-02 22:00 | ASOS | 50 | 28 | 43 | 29.88 | 6 | N | |||
| Danbury | CT | 2026-05-02 21:55 | ASOS | 50 | 28 | 43 | 29.88 | 5 | N | |||
| Danbury | CT | 2026-05-02 21:53 | ASOS | 49 | 28 | 44 | 29.88 | 5 | N | |||
| Danbury | CT | 2026-05-02 21:45 | ASOS | 50 | 28 | 43 | 29.88 | 5 | N | |||
| Danbury | CT | 2026-05-02 21:05 | ASOS | 52 | 28 | 40 | 29.88 | 7 | N | |||
| Danbury | CT | 2026-05-02 21:40 | ASOS | 50 | 28 | 43 | 29.88 | 5 | N | |||
| Danbury | CT | 2026-05-02 21:35 | ASOS | 50 | 28 | 43 | 29.88 | 7 | NNE | |||
| Danbury | CT | 2026-05-02 21:30 | ASOS | 50 | 28 | 43 | 29.88 | 6 | N | |||
| Danbury | CT | 2026-05-02 21:25 | ASOS | 50 | 28 | 43 | 29.88 | 7 | N | |||
| Danbury | CT | 2026-05-02 21:20 | ASOS | 50 | 28 | 43 | 29.88 | 6 | N | |||
| Danbury | CT | 2026-05-02 21:15 | ASOS | 52 | 28 | 40 | 29.88 | 7 | N | |||
| Danbury | CT | 2026-05-02 21:10 | ASOS | 52 | 28 | 40 | 29.88 | 7 | N | |||
| Danbury | CT | 2026-05-02 19:40 | ASOS | 54 | 34 | 47 | 29.85 | 5 | N | |||
| Danbury | CT | 2026-05-02 19:30 | ASOS | 54 | 34 | 47 | 29.85 | 5 | N | |||
| Danbury | CT | 2026-05-02 22:25 | ASOS | 48 | 26 | 43 | 29.88 | 8 | NNW | |||
| Danbury | CT | 2026-05-02 17:25 | ASOS | 57 | 32 | 38 | 29.82 | 10 | WNW | |||
| Danbury | CT | 2026-05-02 17:53 | ASOS | 55 | 30 | 38 | 29.84 | 10 | WNW | |||
| Danbury | CT | 2026-05-02 17:50 | ASOS | 55 | 30 | 38 | 29.83 | 10 | WNW | |||
| Danbury | CT | 2026-05-02 17:45 | ASOS | 55 | 28 | 35 | 29.83 | 10 | WNW | |||
| Danbury | CT | 2026-05-02 17:40 | ASOS | 55 | 28 | 35 | 29.83 | 10 | WNW | |||
| Danbury | CT | 2026-05-02 17:35 | ASOS | 55 | 30 | 38 | 29.83 | 10 | WNW | |||
| Danbury | CT | 2026-05-02 17:30 | ASOS | 57 | 30 | 36 | 29.82 | 10 | WNW | |||
| Danbury | CT | 2026-05-02 17:20 | ASOS | 55 | 30 | 38 | 29.82 | 7 | NNW | |||
| Danbury | CT | 2026-05-02 18:00 | ASOS | 55 | 28 | 35 | 29.83 | 6 | WNW | |||
| Danbury | CT | 2026-05-02 17:15 | ASOS | 55 | 30 | 38 | 29.82 | 5 | NW | |||
| Danbury | CT | 2026-05-02 17:10 | ASOS | 57 | 30 | 36 | 29.82 | 9 | WNW | |||
| Danbury | CT | 2026-05-02 17:05 | ASOS | 55 | 30 | 38 | 29.82 | 6 | NW | |||
| Danbury | CT | 2026-05-02 17:00 | ASOS | 55 | 28 | 35 | 29.82 | 7 | WNW | |||
| Danbury | CT | 2026-05-02 16:55 | ASOS | 57 | 30 | 36 | 29.82 | 7 | WNW | |||
| Danbury | CT | 2026-05-02 16:53 | ASOS | 57 | 31 | 37 | 29.82 | 7 | NW | |||
| Danbury | CT | 2026-05-02 16:50 | ASOS | 55 | 32 | 41 | 29.82 | 8 | NW | |||
| Danbury | CT | 2026-05-02 17:55 | ASOS | 55 | 30 | 38 | 29.83 | 3 | WNW | |||
| Danbury | CT | 2026-05-02 18:05 | ASOS | 55 | 30 | 38 | 29.83 | 5 | W | |||
| Danbury | CT | 2026-05-02 19:25 | ASOS | 54 | 34 | 47 | 29.85 | 5 | N | |||
| Danbury | CT | 2026-05-02 18:53 | ASOS | 54 | 34 | 47 | 29.84 | 7 | NNW | |||
| Danbury | CT | 2026-05-02 19:20 | ASOS | 54 | 34 | 47 | 29.85 | 6 | N | |||
| Danbury | CT | 2026-05-02 19:15 | ASOS | 54 | 34 | 47 | 29.85 | 5 | N | |||
| Danbury | CT | 2026-05-02 19:10 | ASOS | 54 | 34 | 47 | 29.85 | 5 | NNW | |||
| Danbury | CT | 2026-05-02 19:05 | ASOS | 54 | 34 | 47 | 29.85 | 6 | NNW | |||
| Danbury | CT | 2026-05-02 19:00 | ASOS | 54 | 34 | 47 | 29.85 | 8 | N | |||
| Danbury | CT | 2026-05-02 18:55 | ASOS | 54 | 34 | 47 | 29.84 | 8 | NNW | |||
| Danbury | CT | 2026-05-02 18:50 | ASOS | 55 | 34 | 44 | 29.83 | 10 | N | |||
| Danbury | CT | 2026-05-02 18:10 | ASOS | 57 | 30 | 36 | 29.83 | 9 | NNW | |||
| Danbury | CT | 2026-05-02 18:45 | ASOS | 55 | 34 | 44 | 29.83 | 8 | N | |||
| Danbury | CT | 2026-05-02 18:40 | ASOS | 55 | 32 | 41 | 29.83 | 6 | NNW | |||
| Danbury | CT | 2026-05-02 18:35 | ASOS | 55 | 32 | 41 | 29.83 | 7 | N | |||
| Danbury | CT | 2026-05-02 18:30 | ASOS | 55 | 30 | 38 | 29.83 | 7 | NNW | |||
| Danbury | CT | 2026-05-02 18:25 | ASOS | 55 | 30 | 38 | 29.83 | 6 | NW | |||
| Danbury | CT | 2026-05-02 18:20 | ASOS | 55 | 28 | 35 | 29.83 | 7 | WNW | |||
| Danbury | CT | 2026-05-02 18:15 | ASOS | 57 | 30 | 36 | 29.83 | 6 | NNW | |||
| Danbury | CT | 2026-05-02 22:20 | ASOS | 48 | 26 | 43 | 29.88 | 6 | NNW | |||
| Danbury | CT | 2026-05-02 22:30 | ASOS | 48 | 26 | 43 | 29.88 | 10 | NNW | |||
| Danbury | CT | 2026-05-03 04:25 | ASOS | 41 | 28 | 61 | 29.86 | 9 | N | |||
| Danbury | CT | 2026-05-03 02:20 | ASOS | 43 | 26 | 52 | 29.87 | 8 | N | |||
| Danbury | CT | 2026-05-03 02:50 | ASOS | 43 | 26 | 52 | 29.86 | 7 | N | |||
| Danbury | CT | 2026-05-03 02:45 | ASOS | 43 | 26 | 52 | 29.86 | 8 | N | |||
| Danbury | CT | 2026-05-03 02:40 | ASOS | 43 | 28 | 56 | 29.86 | 7 | N | |||
| Danbury | CT | 2026-05-03 02:35 | ASOS | 43 | 26 | 52 | 29.86 | 5 | N | |||
| Danbury | CT | 2026-05-03 02:30 | ASOS | 43 | 26 | 52 | 29.86 | 8 | N | |||
| Danbury | CT | 2026-05-03 02:25 | ASOS | 43 | 26 | 52 | 29.86 | 9 | N | |||
| Danbury | CT | 2026-05-03 02:15 | ASOS | 45 | 28 | 53 | 29.87 | 6 | N | |||
| Danbury | CT | 2026-05-03 02:55 | ASOS | 43 | 26 | 52 | 29.86 | 5 | N | |||
| Danbury | CT | 2026-05-03 02:10 | ASOS | 45 | 28 | 53 | 29.87 | 7 | N | |||
| Danbury | CT | 2026-05-03 02:05 | ASOS | 45 | 28 | 53 | 29.87 | 7 | N | |||
| Danbury | CT | 2026-05-03 02:00 | ASOS | 45 | 28 | 53 | 29.87 | 8 | N | |||
| Danbury | CT | 2026-05-03 01:55 | ASOS | 45 | 28 | 53 | 29.87 | 6 | N | |||
| Danbury | CT | 2026-05-03 01:53 | ASOS | 44 | 28 | 53 | 29.87 | 7 | N | |||
| Danbury | CT | 2026-05-03 01:50 | ASOS | 45 | 28 | 53 | 29.87 | 8 | N | |||
| Danbury | CT | 2026-05-03 01:45 | ASOS | 45 | 28 | 53 | 29.88 | 9 | N | |||
| Danbury | CT | 2026-05-03 02:53 | ASOS | 42 | 27 | 55 | 29.86 | 5 | ||||
| Danbury | CT | 2026-05-03 03:00 | ASOS | 43 | 26 | 52 | 29.86 | 5 | N | |||
| Danbury | CT | 2026-05-03 01:35 | ASOS | 45 | 28 | 53 | 29.88 | 8 | N | |||
| Danbury | CT | 2026-05-03 03:50 | ASOS | 41 | 28 | 61 | 29.86 | 7 | N | |||
| Danbury | CT | 2026-05-03 04:20 | ASOS | 41 | 28 | 61 | 29.86 | 6 | N | |||
| Danbury | CT | 2026-05-03 04:15 | ASOS | 41 | 26 | 56 | 29.86 | 7 | N | |||
| Danbury | CT | 2026-05-03 04:10 | ASOS | 41 | 26 | 56 | 29.86 | 7 | N | |||
| Danbury | CT | 2026-05-03 04:05 | ASOS | 41 | 26 | 56 | 29.86 | 6 | N | |||
| Danbury | CT | 2026-05-03 04:00 | ASOS | 41 | 26 | 56 | 29.86 | 8 | NNW | |||
| Danbury | CT | 2026-05-03 03:53 | ASOS | 41 | 28 | 60 | 29.86 | 6 | NNE | |||
| Danbury | CT | 2026-05-03 03:45 | ASOS | 41 | 26 | 56 | 29.86 | 8 | N | |||
| Danbury | CT | 2026-05-03 03:05 | ASOS | 43 | 26 | 52 | 29.86 | 9 | N | |||
| Danbury | CT | 2026-05-03 03:40 | ASOS | 41 | 26 | 56 | 29.86 | 7 | N | |||
| Danbury | CT | 2026-05-03 03:35 | ASOS | 41 | 26 | 56 | 29.86 | 7 | N | |||
| Danbury | CT | 2026-05-03 03:30 | ASOS | 41 | 26 | 56 | 29.86 | 8 | N | |||
| Danbury | CT | 2026-05-03 03:25 | ASOS | 43 | 26 | 52 | 29.86 | 8 | N | |||
| Danbury | CT | 2026-05-03 03:20 | ASOS | 41 | 26 | 56 | 29.86 | 7 | N | |||
| Danbury | CT | 2026-05-03 03:15 | ASOS | 43 | 26 | 52 | 29.86 | 8 | N | |||
| Danbury | CT | 2026-05-03 03:10 | ASOS | 43 | 26 | 52 | 29.86 | 7 | N | |||
| Danbury | CT | 2026-05-03 01:40 | ASOS | 45 | 28 | 53 | 29.88 | 6 | N | |||
| Danbury | CT | 2026-05-03 01:30 | ASOS | 45 | 28 | 53 | 29.88 | 5 | NNE | |||
| Danbury | CT | 2026-05-02 22:35 | ASOS | 48 | 26 | 43 | 29.88 | 8 | N | |||
| Danbury | CT | 2026-05-02 23:15 | ASOS | 48 | 26 | 43 | 29.88 | 12 | N | |||
| Danbury | CT | 2026-05-02 23:45 | ASOS | 46 | 26 | 46 | 29.88 | 9 | N | |||
| Danbury | CT | 2026-05-02 23:40 | ASOS | 46 | 26 | 46 | 29.88 | 9 | N | |||
| Danbury | CT | 2026-05-02 23:35 | ASOS | 46 | 26 | 46 | 29.88 | 9 | N | |||
| Danbury | CT | 2026-05-02 23:30 | ASOS | 46 | 26 | 46 | 29.88 | 8 | N | |||
| Danbury | CT | 2026-05-02 23:25 | ASOS | 46 | 26 | 46 | 29.88 | 7 | N | |||
| Danbury | CT | 2026-05-02 23:20 | ASOS | 48 | 26 | 43 | 29.88 | 10 | N | |||
| Danbury | CT | 2026-05-02 23:10 | ASOS | 48 | 26 | 43 | 29.88 | 10 | N | |||
| Danbury | CT | 2026-05-02 23:53 | ASOS | 47 | 27 | 45 | 29.88 | 7 | N | |||
| Danbury | CT | 2026-05-02 23:05 | ASOS | 48 | 26 | 43 | 29.88 | 12 | N | |||
| Danbury | CT | 2026-05-02 23:00 | ASOS | 48 | 26 | 43 | 29.87 | 14 | N | |||
| Danbury | CT | 2026-05-02 22:55 | ASOS | 48 | 26 | 43 | 29.87 | 8 | N | |||
| Danbury | CT | 2026-05-02 22:53 | ASOS | 48 | 27 | 44 | 29.87 | 10 | N | |||
| Danbury | CT | 2026-05-02 22:50 | ASOS | 48 | 26 | 43 | 29.88 | 13 | N | |||
| Danbury | CT | 2026-05-02 22:45 | ASOS | 48 | 26 | 43 | 29.88 | 10 | N | |||
| Danbury | CT | 2026-05-02 22:40 | ASOS | 48 | 26 | 43 | 29.88 | 12 | N | |||
| Danbury | CT | 2026-05-02 23:50 | ASOS | 46 | 26 | 46 | 29.88 | 8 | N | |||
| Danbury | CT | 2026-05-02 23:55 | ASOS | 46 | 26 | 46 | 29.88 | 8 | N | |||
| Danbury | CT | 2026-05-03 01:25 | ASOS | 45 | 28 | 53 | 29.88 | 7 | N | |||
| Danbury | CT | 2026-05-03 00:45 | ASOS | 45 | 26 | 49 | 29.89 | 6 | NNW | |||
| Danbury | CT | 2026-05-03 01:20 | ASOS | 45 | 28 | 53 | 29.88 | 7 | N | |||
| Danbury | CT | 2026-05-03 01:15 | ASOS | 45 | 28 | 53 | 29.88 | 9 | N | |||
| Danbury | CT | 2026-05-03 01:05 | ASOS | 45 | 26 | 49 | 29.88 | 10 | N | |||
| Danbury | CT | 2026-05-03 01:00 | ASOS | 46 | 26 | 46 | 29.88 | 10 | N | |||
| Danbury | CT | 2026-05-03 00:53 | ASOS | 46 | 27 | 47 | 29.88 | 8 | N | |||
| Danbury | CT | 2026-05-03 00:50 | ASOS | 46 | 26 | 46 | 29.88 | 7 | N | |||
| Danbury | CT | 2026-05-03 00:40 | ASOS | 45 | 26 | 49 | 29.89 | 5 | N | |||
| Danbury | CT | 2026-05-03 00:00 | ASOS | 46 | 26 | 46 | 29.88 | 8 | N | |||
| Danbury | CT | 2026-05-03 00:35 | ASOS | 46 | 26 | 46 | 29.88 | 6 | N | |||
| Danbury | CT | 2026-05-03 00:30 | ASOS | 46 | 26 | 46 | 29.88 | 8 | N | |||
| Danbury | CT | 2026-05-03 00:25 | ASOS | 46 | 26 | 46 | 29.88 | 6 | N | |||
| Danbury | CT | 2026-05-03 00:20 | ASOS | 46 | 26 | 46 | 29.88 | 8 | N | |||
| Danbury | CT | 2026-05-03 00:15 | ASOS | 46 | 26 | 46 | 29.88 | 8 | NNW | |||
| Danbury | CT | 2026-05-03 00:10 | ASOS | 46 | 26 | 46 | 29.88 | 7 | NNW | |||
| Danbury | CT | 2026-05-03 00:05 | ASOS | 46 | 26 | 46 | 29.88 | 7 | N | |||
| Danbury | CT | 2026-05-03 16:30 | ASOS | 55 | 23 | 28 | 29.82 | 16 | NW |
data collection created in 0.045506954193115 (queried in 0.010296) rendered in: 0.00060796737670898

